createdAt,value
2018-08-18T00:00:27.326Z,90.90
2018-08-18T00:05:30.986Z,90.80
2018-08-18T00:10:34.581Z,91.30
2018-08-18T00:15:38.270Z,91.10
2018-08-18T00:20:41.859Z,90.90
2018-08-18T00:25:45.422Z,90.80
2018-08-18T00:30:49.070Z,91.30
2018-08-18T00:35:52.683Z,91.40
2018-08-18T00:40:56.290Z,91.10
2018-08-18T00:45:59.925Z,91.80
2018-08-18T00:51:03.627Z,90.90
2018-08-18T00:56:07.461Z,91.20
2018-08-18T01:01:14.530Z,91.90
2018-08-18T01:06:19.738Z,91.80
2018-08-18T01:11:23.546Z,92.00
2018-08-18T01:16:27.239Z,91.80
2018-08-18T01:21:30.971Z,92.20
2018-08-18T01:26:34.502Z,92.00
2018-08-18T01:31:41.457Z,91.70
2018-08-18T01:36:45.012Z,90.80
2018-08-18T01:41:50.734Z,91.40
2018-08-18T01:46:55.010Z,91.80
2018-08-18T01:52:00.508Z,92.10
2018-08-18T01:57:09.109Z,92.10
2018-08-18T02:02:15.349Z,92.00
2018-08-18T02:07:26.626Z,91.90
2018-08-18T02:12:30.550Z,91.70
2018-08-18T02:17:38.083Z,92.10
2018-08-18T02:22:41.661Z,91.50
2018-08-18T02:27:45.298Z,91.70
2018-08-18T02:32:48.873Z,92.00
2018-08-18T02:37:52.475Z,91.40
2018-08-18T02:42:56.126Z,92.00
2018-08-18T02:48:10.741Z,92.20
2018-08-18T02:53:24.843Z,92.30
2018-08-18T02:58:28.372Z,93.90
2018-08-18T03:03:32.017Z,91.40
2018-08-18T03:08:35.731Z,92.10
2018-08-18T03:13:40.397Z,92.60
2018-08-18T03:18:47.302Z,91.90
2018-08-18T03:24:02.114Z,92.00
2018-08-18T03:29:05.739Z,92.20
2018-08-18T03:34:09.749Z,92.20
2018-08-18T03:39:23.257Z,91.70
2018-08-18T03:44:26.775Z,92.00
2018-08-18T03:49:30.474Z,92.60
2018-08-18T03:54:34.005Z,92.40
2018-08-18T03:59:37.576Z,92.40
2018-08-18T04:04:41.156Z,92.20
2018-08-18T04:09:44.826Z,93.00
2018-08-18T04:14:48.486Z,92.80
2018-08-18T04:19:52.130Z,92.40
2018-08-18T04:24:56.295Z,93.30
2018-08-18T04:30:00.875Z,92.70
2018-08-18T04:35:04.499Z,93.30
2018-08-18T04:40:08.092Z,93.10
2018-08-18T04:45:12.506Z,93.20
2018-08-18T04:50:16.079Z,93.10
2018-08-18T04:55:19.897Z,92.60
2018-08-18T05:00:23.539Z,92.50
2018-08-18T05:05:32.500Z,92.80
2018-08-18T05:10:37.472Z,92.90
2018-08-18T05:15:41.009Z,92.90
2018-08-18T05:20:44.739Z,93.10
2018-08-18T05:25:50.319Z,93.30
2018-08-18T05:30:54.486Z,92.90
2018-08-18T05:35:59.160Z,92.80
2018-08-18T05:41:04.091Z,92.50
2018-08-18T05:46:07.734Z,92.50
2018-08-18T05:51:11.437Z,92.60
2018-08-18T05:56:15.077Z,93.20
2018-08-18T06:01:37.120Z,92.60
2018-08-18T06:06:41.402Z,92.30
2018-08-18T06:11:45.026Z,92.90
2018-08-18T06:16:48.712Z,91.30
2018-08-18T06:21:54.679Z,92.10
2018-08-18T06:26:58.361Z,91.80
2018-08-18T06:32:03.578Z,91.30
2018-08-18T06:37:11.053Z,91.00
2018-08-18T06:42:25.781Z,91.30
2018-08-18T06:47:29.404Z,92.90
2018-08-18T06:52:33.119Z,91.60
2018-08-18T06:57:46.423Z,90.50
2018-08-18T07:02:52.175Z,90.50
2018-08-18T07:07:55.860Z,91.70
2018-08-18T07:13:00.982Z,84.80
2018-08-18T07:18:05.746Z,72.40
2018-08-18T07:23:09.717Z,71.00
2018-08-18T07:28:21.013Z,62.00
2018-08-18T07:33:24.744Z,60.90
2018-08-18T07:38:28.874Z,64.20
2018-08-18T07:43:35.374Z,58.70
2018-08-18T07:48:39.229Z,59.60
2018-08-18T07:53:42.910Z,58.50
2018-08-18T07:58:46.802Z,58.40
2018-08-18T08:03:50.539Z,53.60
2018-08-18T08:08:54.199Z,54.80
2018-08-18T08:13:59.043Z,53.40
2018-08-18T08:19:06.474Z,53.90
2018-08-18T08:24:11.070Z,54.90
2018-08-18T08:29:14.674Z,48.70
2018-08-18T08:34:19.778Z,48.30
2018-08-18T08:39:23.355Z,51.40
2018-08-18T08:44:28.162Z,50.20
2018-08-18T08:49:31.853Z,45.60
2018-08-18T08:54:36.657Z,46.20
2018-08-18T08:59:41.339Z,45.50
2018-08-18T09:04:49.726Z,47.00
2018-08-18T09:09:53.282Z,46.60
2018-08-18T09:15:00.924Z,44.30
2018-08-18T09:20:05.777Z,40.50
2018-08-18T09:25:15.744Z,40.60
2018-08-18T09:30:22.043Z,41.80
2018-08-18T09:35:26.795Z,41.80
2018-08-18T09:40:32.038Z,42.00
2018-08-18T09:45:35.744Z,41.50
2018-08-18T09:50:40.573Z,46.40
2018-08-18T09:55:44.270Z,43.10
2018-08-18T10:01:00.346Z,40.20
2018-08-18T10:06:05.056Z,39.60
2018-08-18T10:11:08.637Z,41.50
2018-08-18T10:16:17.869Z,40.30
2018-08-18T10:21:21.454Z,43.00
2018-08-18T10:26:31.798Z,42.10
2018-08-18T10:31:37.066Z,39.60
2018-08-18T10:36:40.785Z,43.20
2018-08-18T10:41:56.337Z,40.90
2018-08-18T10:47:16.418Z,41.10
2018-08-18T10:52:32.403Z,43.90
2018-08-18T10:57:48.169Z,46.40
2018-08-18T11:02:52.943Z,41.40
2018-08-18T11:08:06.121Z,43.00
2018-08-18T11:13:09.755Z,49.20
2018-08-18T11:18:13.599Z,45.40
2018-08-18T11:23:17.193Z,45.20
2018-08-18T11:28:21.478Z,45.90
2018-08-18T11:33:40.474Z,44.00
2018-08-18T11:38:45.683Z,43.00
2018-08-18T11:43:50.679Z,42.40
2018-08-18T11:48:54.285Z,42.70
2018-08-18T11:54:00.453Z,41.80
2018-08-18T11:59:24.325Z,40.60
2018-08-18T12:04:27.942Z,37.80
2018-08-18T12:09:31.543Z,38.20
2018-08-18T12:14:35.193Z,45.80
2018-08-18T12:19:39.847Z,41.20
2018-08-18T12:24:48.213Z,42.20
2018-08-18T12:29:52.082Z,38.80
2018-08-18T12:37:51.446Z,48.80
2018-08-18T12:43:01.645Z,48.20
2018-08-18T12:48:07.285Z,42.80
2018-08-18T12:53:13.057Z,47.00
2018-08-18T12:58:17.121Z,46.50
2018-08-18T13:03:22.823Z,48.50
2018-08-18T13:08:26.386Z,38.30
2018-08-18T13:13:30.399Z,44.10
2018-08-18T13:18:34.411Z,43.80
2018-08-18T13:23:39.926Z,50.20
2018-08-18T13:28:47.790Z,48.80
2018-08-18T13:33:51.473Z,50.00
2018-08-18T13:38:56.181Z,51.00
2018-08-18T13:44:00.812Z,49.50
2018-08-18T13:49:05.246Z,51.60
2018-08-18T13:54:12.403Z,45.80
2018-08-18T13:59:51.312Z,48.00
2018-08-18T14:04:54.882Z,45.50
2018-08-18T14:10:02.091Z,48.60
2018-08-18T14:15:05.908Z,45.50
2018-08-18T14:20:09.750Z,47.70
2018-08-18T14:25:13.386Z,48.40
2018-08-18T14:30:17.268Z,46.00
2018-08-18T14:35:21.210Z,51.00
2018-08-18T14:40:25.109Z,51.00
2018-08-18T14:45:28.919Z,49.60
2018-08-18T14:50:33.515Z,47.50
2018-08-18T14:55:37.914Z,43.30
2018-08-18T15:00:42.643Z,46.40
2018-08-18T15:05:46.293Z,41.90
2018-08-18T15:10:49.951Z,51.50
2018-08-18T15:15:55.596Z,51.70
2018-08-18T15:21:00.249Z,48.70
2018-08-18T15:26:07.369Z,47.80
2018-08-18T15:31:15.807Z,51.80
2018-08-18T15:36:32.730Z,48.80
2018-08-18T15:41:36.551Z,48.70
2018-08-18T15:46:40.845Z,44.30
2018-08-18T15:51:45.531Z,49.60
2018-08-18T15:56:53.834Z,45.70
2018-08-18T16:01:57.626Z,48.10
2018-08-18T16:07:02.378Z,49.20
2018-08-18T16:12:06.074Z,49.70
2018-08-18T16:17:09.834Z,51.20
2018-08-18T16:22:13.425Z,48.10
2018-08-18T16:27:17.223Z,51.80
2018-08-18T16:32:26.552Z,50.80
2018-08-18T16:37:32.219Z,51.40
2018-08-18T16:42:38.156Z,50.90
2018-08-18T16:47:52.118Z,52.20
2018-08-18T16:52:56.314Z,52.20
2018-08-18T16:58:01.958Z,49.70
2018-08-18T17:03:10.602Z,50.80
2018-08-18T17:08:14.262Z,53.70
2018-08-18T17:13:18.113Z,50.50
2018-08-18T17:18:23.706Z,49.40
2018-08-18T17:23:29.271Z,51.10
2018-08-18T17:28:33.505Z,53.50
2018-08-18T17:33:37.052Z,54.40
2018-08-18T17:38:40.862Z,51.70
2018-08-18T17:43:44.523Z,54.10
2018-08-18T17:48:53.484Z,53.60
2018-08-18T17:53:57.270Z,54.60
2018-08-18T17:59:01.041Z,53.30
2018-08-18T18:04:04.646Z,54.30
2018-08-18T18:09:08.441Z,54.90
2018-08-18T18:14:12.198Z,54.60
2018-08-18T18:19:16.889Z,54.20
2018-08-18T18:24:31.724Z,56.40
2018-08-18T18:29:36.457Z,55.50
2018-08-18T18:34:40.119Z,57.20
2018-08-18T18:39:55.781Z,56.30
2018-08-18T18:44:59.806Z,57.60
2018-08-18T18:50:03.409Z,56.60
2018-08-18T18:55:07.462Z,58.40
2018-08-18T19:00:11.186Z,56.70
2018-08-18T19:05:22.226Z,58.20
2018-08-18T19:10:25.890Z,57.20
2018-08-18T19:15:30.545Z,58.20
2018-08-18T19:20:36.252Z,59.10
2018-08-18T19:25:44.127Z,60.00
2018-08-18T19:30:47.891Z,59.90
2018-08-18T19:35:55.130Z,60.70
2018-08-18T19:40:58.750Z,61.80
2018-08-18T19:46:02.365Z,63.10
2018-08-18T19:51:11.403Z,63.60
2018-08-18T19:56:27.385Z,62.70
2018-08-18T20:01:30.928Z,61.70
2018-08-18T20:06:35.093Z,61.10
2018-08-18T20:11:38.779Z,62.50
2018-08-18T20:16:44.553Z,62.80
2018-08-18T20:21:49.806Z,66.80
2018-08-18T20:26:53.435Z,68.00
2018-08-18T20:32:01.707Z,68.60
2018-08-18T20:37:05.315Z,67.30
2018-08-18T20:42:10.181Z,67.50
2018-08-18T20:47:13.820Z,67.10
2018-08-18T20:52:19.486Z,68.50
2018-08-18T20:57:23.061Z,68.70
2018-08-18T21:02:33.543Z,69.40
2018-08-18T21:07:37.234Z,70.50
2018-08-18T21:12:48.681Z,71.50
2018-08-18T21:17:52.335Z,71.40
2018-08-18T21:22:57.754Z,72.00
2018-08-18T21:28:01.397Z,72.90
2018-08-18T21:33:04.971Z,72.70
2018-08-18T21:38:08.713Z,72.50
2018-08-18T21:43:23.731Z,73.10
2018-08-18T21:48:38.798Z,73.80
2018-08-18T21:53:43.322Z,73.10
2018-08-18T21:58:46.962Z,72.50
2018-08-18T22:03:51.906Z,73.30
2018-08-18T22:09:09.555Z,74.00
2018-08-18T22:14:18.972Z,75.00
2018-08-18T22:19:22.691Z,76.10
2018-08-18T22:24:26.553Z,74.80
2018-08-18T22:29:30.223Z,75.80
2018-08-18T22:34:39.131Z,75.00
2018-08-18T22:39:43.375Z,76.40
2018-08-18T22:44:48.074Z,76.50
2018-08-18T22:49:53.280Z,76.50
2018-08-18T22:54:57.083Z,77.30
2018-08-18T23:00:01.079Z,76.20
2018-08-18T23:05:04.934Z,76.70
2018-08-18T23:10:09.554Z,77.30
2018-08-18T23:15:13.159Z,78.90
2018-08-18T23:20:16.815Z,78.10
2018-08-18T23:25:32.162Z,79.10
2018-08-18T23:30:39.798Z,78.20
2018-08-18T23:35:43.338Z,79.10
2018-08-18T23:40:46.940Z,79.60
2018-08-18T23:45:50.590Z,79.90
2018-08-18T23:50:54.162Z,79.60
2018-08-18T23:55:59.369Z,80.80
